Cedar Lake, Texas
Current Conditions -  °F | °C
As of 1:53 PM on Wednesday 17 Dec 2014 (Local Time) from KLBX Reporting Station
Overcast Overcast  
Wind Chill: 66°   Ceiling: 9000
Heat Index: 66°   Visibility: 10mi
Dew Point: 58°   Wind: 14mph
Humidity: 75%   Direction: 110°ESE
Pressure: 30.1"   Gusts: 21mph
Location:  28.8997°N, 95.7887°W
Report Text: KLBX 171953Z AUTO 11012G18KT 10SM OVC090 19/14 A3010 RMK AO2 SLP192 T01890144
Loading
Personal Weather Stations






























Interactive Weather Map New forecast layout! Learn more

10-Day Weather Forecast

Advertisements
Track Severe Weather on mobile